createdAt,value
2018-03-06T00:02:15.001Z,13.20
2018-03-06T00:04:42.917Z,13.98
2018-03-06T00:07:10.860Z,14.18
2018-03-06T00:09:38.808Z,13.98
2018-03-06T00:12:06.725Z,14.52
2018-03-06T00:14:34.664Z,13.45
2018-03-06T00:17:02.571Z,13.93
2018-03-06T00:19:30.505Z,14.52
2018-03-06T00:21:58.460Z,15.38
2018-03-06T00:24:26.384Z,15.00
2018-03-06T00:26:54.316Z,15.23
2018-03-06T00:29:22.259Z,14.65
2018-03-06T00:31:50.167Z,15.38
2018-03-06T00:34:18.078Z,15.95
2018-03-06T00:36:46.005Z,16.60
2018-03-06T00:39:13.930Z,16.33
2018-03-06T00:41:41.841Z,13.93
2018-03-06T00:44:09.759Z,14.85
2018-03-06T00:46:37.697Z,13.65
2018-03-06T00:49:05.630Z,17.08
2018-03-06T00:51:33.568Z,15.35
2018-03-06T00:54:01.483Z,15.55
2018-03-06T00:56:29.588Z,14.98
2018-03-06T00:58:57.513Z,15.30
2018-03-06T01:01:25.431Z,14.77
2018-03-06T01:03:53.329Z,15.52
2018-03-06T01:06:21.241Z,12.32
2018-03-06T01:08:49.155Z,13.27
2018-03-06T01:11:17.073Z,15.18
2018-03-06T01:13:45.018Z,14.95
2018-03-06T01:16:12.941Z,14.98
2018-03-06T01:18:40.852Z,15.43
2018-03-06T01:21:08.760Z,14.93
2018-03-06T01:23:36.663Z,14.73
2018-03-06T01:26:04.583Z,14.25
2018-03-06T01:28:32.513Z,15.13
2018-03-06T01:31:00.432Z,16.95
2018-03-06T01:33:28.352Z,15.88
2018-03-06T01:35:56.278Z,16.30
2018-03-06T01:38:24.195Z,17.75
2018-03-06T01:40:52.113Z,14.93
2018-03-06T01:43:20.036Z,15.38
2018-03-06T01:45:47.965Z,15.52
2018-03-06T01:48:15.922Z,16.20
2018-03-06T01:50:43.844Z,15.80
2018-03-06T01:53:11.753Z,16.42
2018-03-06T01:55:39.675Z,14.48
2018-03-06T01:58:07.598Z,17.30
2018-03-06T02:00:35.526Z,18.70
2018-03-06T02:03:03.444Z,16.45
2018-03-06T02:05:31.354Z,15.52
2018-03-06T02:07:59.265Z,16.52
2018-03-06T02:10:27.176Z,16.95
2018-03-06T02:12:55.085Z,17.15
2018-03-06T02:15:23.024Z,16.37
2018-03-06T02:17:51.428Z,18.10
2018-03-06T02:20:19.345Z,16.92
2018-03-06T02:22:47.288Z,17.23
2018-03-06T02:25:15.215Z,16.30
2018-03-06T02:27:43.123Z,17.80
2018-03-06T02:30:11.040Z,17.98
2018-03-06T02:32:38.964Z,18.90
2018-03-06T02:35:06.883Z,17.83
2018-03-06T02:37:34.801Z,17.10
2018-03-06T02:40:02.733Z,18.05
2018-03-06T02:42:30.645Z,18.65
2018-03-06T02:44:58.571Z,19.85
2018-03-06T02:47:26.493Z,19.10
2018-03-06T02:49:54.408Z,20.60
2018-03-06T02:52:22.333Z,17.77
2018-03-06T02:54:50.252Z,18.77
2018-03-06T02:57:18.180Z,18.77
2018-03-06T02:59:46.092Z,20.00
2018-03-06T03:02:14.021Z,18.08
2018-03-06T03:04:41.935Z,18.62
2018-03-06T03:07:09.853Z,20.37
2018-03-06T03:09:37.785Z,19.77
2018-03-06T03:12:05.697Z,20.73
2018-03-06T03:14:33.613Z,20.12
2018-03-06T03:17:01.520Z,19.75
2018-03-06T03:19:29.457Z,21.25
2018-03-06T03:21:57.383Z,20.15
2018-03-06T03:24:25.304Z,20.55
2018-03-06T03:26:53.220Z,19.90
2018-03-06T03:29:21.132Z,19.60
2018-03-06T03:31:49.049Z,21.20
2018-03-06T03:34:16.985Z,19.65
2018-03-06T03:36:44.906Z,21.65
2018-03-06T03:39:12.832Z,24.48
2018-03-06T03:41:40.744Z,21.60
2018-03-06T03:44:08.692Z,21.70
2018-03-06T03:46:36.601Z,23.87
2018-03-06T03:49:04.917Z,24.60
2018-03-06T03:51:32.829Z,23.77
2018-03-06T03:54:00.748Z,22.40
2018-03-06T03:56:28.659Z,24.33
2018-03-06T03:58:56.577Z,25.00
2018-03-06T04:01:24.500Z,26.75
2018-03-06T04:03:52.407Z,23.98
2018-03-06T04:06:20.400Z,24.02
2018-03-06T04:08:48.320Z,27.40
2018-03-06T04:11:16.248Z,23.85
2018-03-06T04:13:44.166Z,27.40
2018-03-06T04:16:12.100Z,24.50
2018-03-06T04:18:40.029Z,25.73
2018-03-06T04:21:07.952Z,25.73
2018-03-06T04:23:35.851Z,26.98
2018-03-06T04:26:03.804Z,27.25
2018-03-06T04:28:31.717Z,27.45
2018-03-06T04:30:59.697Z,26.05
2018-03-06T04:33:27.614Z,27.80
2018-03-06T04:35:55.565Z,25.85
2018-03-06T04:38:23.494Z,27.55
2018-03-06T04:40:51.419Z,25.20
2018-03-06T04:43:19.357Z,25.27
2018-03-06T04:45:47.289Z,29.80
2018-03-06T04:48:15.211Z,29.12
2018-03-06T04:50:43.125Z,29.05
2018-03-06T04:53:11.042Z,27.83
2018-03-06T04:55:38.965Z,28.45
2018-03-06T04:58:06.894Z,30.77
2018-03-06T05:00:34.809Z,29.75
2018-03-06T05:03:02.728Z,27.25
2018-03-06T05:05:30.665Z,29.60
2018-03-06T05:07:58.578Z,29.05
2018-03-06T05:10:26.492Z,29.80
2018-03-06T05:12:54.420Z,28.00
2018-03-06T05:15:22.329Z,27.37
2018-03-06T05:17:50.258Z,27.75
2018-03-06T05:20:18.176Z,30.40
2018-03-06T05:22:46.649Z,29.95
2018-03-06T05:25:14.565Z,28.83
2018-03-06T05:27:42.506Z,29.55
2018-03-06T05:30:17.466Z,30.60
2018-03-06T05:32:45.388Z,30.05
2018-03-06T05:35:13.309Z,31.23
2018-03-06T05:37:41.245Z,31.33
2018-03-06T05:40:09.169Z,28.58
2018-03-06T05:42:37.097Z,32.08
2018-03-06T05:45:05.033Z,31.67
2018-03-06T05:47:32.945Z,29.90
2018-03-06T05:50:00.900Z,32.75
2018-03-06T05:52:28.838Z,32.92
2018-03-06T05:54:57.120Z,29.80
2018-03-06T05:57:25.033Z,31.37
2018-03-06T05:59:52.953Z,33.10
2018-03-06T06:02:20.864Z,33.40
2018-03-06T06:04:48.774Z,32.55
2018-03-06T06:07:17.604Z,32.13
2018-03-06T06:09:45.528Z,31.73
2018-03-06T06:12:13.445Z,33.75
2018-03-06T06:14:41.352Z,32.80
2018-03-06T06:17:09.496Z,31.50
2018-03-06T06:19:37.395Z,32.78
2018-03-06T06:22:05.333Z,31.98
2018-03-06T06:24:33.260Z,32.45
2018-03-06T06:27:01.156Z,32.63
2018-03-06T06:29:29.136Z,33.92
2018-03-06T06:31:57.029Z,34.60
2018-03-06T06:34:24.933Z,31.02
2018-03-06T06:36:52.834Z,32.70
2018-03-06T06:39:20.864Z,37.17
2018-03-06T06:41:48.773Z,36.63
2018-03-06T06:44:16.677Z,35.53
2018-03-06T06:46:44.741Z,33.40
2018-03-06T06:49:12.656Z,35.95
2018-03-06T06:51:40.564Z,36.33
2018-03-06T06:54:08.465Z,34.33
2018-03-06T06:56:36.461Z,33.88
2018-03-06T06:59:04.368Z,35.35
2018-03-06T07:01:32.280Z,35.38
2018-03-06T07:04:00.184Z,35.55
2018-03-06T07:06:28.133Z,34.67
2018-03-06T07:08:56.036Z,36.20
2018-03-06T07:11:23.946Z,34.90
2018-03-06T07:13:51.857Z,36.45
2018-03-06T07:16:19.756Z,35.90
2018-03-06T07:18:47.653Z,36.17
2018-03-06T07:21:15.602Z,36.33
2018-03-06T07:23:43.479Z,37.33
2018-03-06T07:26:11.395Z,38.67
2018-03-06T07:28:39.300Z,38.33
2018-03-06T07:31:07.218Z,38.38
2018-03-06T07:33:35.134Z,38.95
2018-03-06T07:36:03.075Z,39.85
2018-03-06T07:38:30.977Z,37.20
2018-03-06T07:40:58.897Z,36.90
2018-03-06T07:43:26.793Z,38.88
2018-03-06T07:45:54.680Z,35.88
2018-03-06T07:48:22.587Z,36.75
2018-03-06T07:50:50.477Z,35.75
2018-03-06T07:53:18.425Z,39.40
2018-03-06T07:55:46.319Z,36.72
2018-03-06T07:58:14.224Z,37.10
2018-03-06T08:00:42.147Z,34.35
2018-03-06T08:03:10.378Z,36.08
2018-03-06T08:05:38.289Z,36.50
2018-03-06T08:08:07.045Z,38.08
2018-03-06T08:10:34.972Z,38.60
2018-03-06T08:13:02.884Z,35.97
2018-03-06T08:15:30.806Z,36.97
2018-03-06T08:17:58.714Z,35.08
2018-03-06T08:20:26.628Z,38.85
2018-03-06T08:22:54.545Z,37.30
2018-03-06T08:25:22.465Z,35.92
2018-03-06T08:27:50.368Z,38.63
2018-03-06T08:30:18.325Z,38.55
2018-03-06T08:32:46.245Z,34.17
2018-03-06T08:35:14.168Z,36.25
2018-03-06T08:37:42.120Z,33.67
2018-03-06T08:40:10.000Z,34.03
2018-03-06T08:42:37.924Z,35.42
2018-03-06T08:45:05.841Z,35.75
2018-03-06T08:47:33.753Z,35.47
2018-03-06T08:50:01.910Z,34.95
2018-03-06T08:52:29.829Z,36.08
2018-03-06T08:54:57.729Z,35.72
2018-03-06T08:57:25.640Z,35.70
2018-03-06T08:59:53.544Z,35.33
2018-03-06T09:02:21.454Z,35.95
2018-03-06T09:04:49.389Z,36.78
2018-03-06T09:07:17.309Z,34.65
2018-03-06T09:09:45.237Z,38.58
2018-03-06T09:12:13.187Z,36.50
2018-03-06T09:14:41.061Z,36.27
2018-03-06T09:17:09.169Z,35.13
2018-03-06T09:19:37.081Z,36.92
2018-03-06T09:22:05.007Z,37.00
2018-03-06T09:24:32.916Z,34.70
2018-03-06T09:27:07.887Z,35.83
2018-03-06T09:29:35.819Z,34.10
2018-03-06T09:32:03.728Z,35.00
2018-03-06T09:34:31.647Z,36.03
2018-03-06T09:36:59.583Z,36.40
2018-03-06T09:39:27.486Z,32.70
2018-03-06T09:41:55.402Z,32.53
2018-03-06T09:44:23.326Z,37.53
2018-03-06T09:46:51.236Z,37.03
2018-03-06T09:49:19.141Z,36.53
2018-03-06T09:51:47.037Z,37.80
2018-03-06T09:54:14.946Z,37.73
2018-03-06T09:56:42.852Z,35.90
2018-03-06T09:59:10.756Z,35.47
2018-03-06T10:01:38.681Z,38.60
2018-03-06T10:04:06.585Z,36.90
2018-03-06T10:06:34.541Z,36.07
2018-03-06T10:09:02.515Z,33.80
2018-03-06T10:11:30.463Z,35.87
2018-03-06T10:13:58.390Z,37.50
2018-03-06T10:16:26.325Z,36.90
2018-03-06T10:18:54.267Z,33.97
2018-03-06T10:21:22.533Z,36.47
2018-03-06T10:23:50.487Z,36.70
2018-03-06T10:26:18.445Z,37.40
2018-03-06T10:28:46.380Z,36.43
2018-03-06T10:31:14.335Z,37.60
2018-03-06T10:33:42.278Z,35.13
2018-03-06T10:36:10.226Z,36.10
2018-03-06T10:38:38.178Z,36.50
2018-03-06T10:41:06.124Z,37.40
2018-03-06T10:43:34.071Z,37.60
2018-03-06T10:46:02.038Z,38.47
2018-03-06T10:48:29.975Z,37.87
2018-03-06T10:50:57.926Z,35.47
2018-03-06T10:53:25.868Z,38.53
2018-03-06T10:55:53.834Z,38.20
2018-03-06T10:58:21.806Z,36.03
2018-03-06T11:00:49.818Z,35.80
2018-03-06T11:03:22.664Z,36.50
2018-03-06T11:05:50.569Z,39.60
2018-03-06T11:08:18.462Z,36.20
2018-03-06T11:10:46.373Z,36.53
2018-03-06T11:13:14.361Z,34.20
2018-03-06T11:15:42.280Z,38.77
2018-03-06T11:18:10.172Z,35.63
2018-03-06T11:20:38.345Z,37.10
2018-03-06T11:23:06.307Z,36.00
2018-03-06T11:25:34.201Z,36.13
2018-03-06T11:28:02.124Z,36.80
2018-03-06T11:30:30.036Z,35.00
2018-03-06T11:32:57.928Z,35.93
2018-03-06T11:35:25.835Z,38.20
2018-03-06T11:37:53.789Z,35.97
2018-03-06T11:40:21.692Z,37.00
2018-03-06T11:42:49.614Z,38.27
2018-03-06T11:45:17.522Z,38.50
2018-03-06T11:47:45.424Z,36.87
2018-03-06T11:50:13.345Z,37.10
2018-03-06T11:52:41.252Z,36.80
2018-03-06T11:55:09.166Z,38.90
2018-03-06T11:57:37.166Z,34.43
2018-03-06T12:00:05.060Z,35.40
2018-03-06T12:02:32.985Z,36.40
2018-03-06T12:05:00.884Z,36.87
2018-03-06T12:07:28.789Z,36.23
2018-03-06T12:09:56.700Z,36.40
2018-03-06T12:12:24.621Z,34.83
2018-03-06T12:14:52.544Z,35.63
2018-03-06T12:17:20.464Z,35.30
2018-03-06T12:19:48.364Z,35.13
2018-03-06T12:22:16.266Z,34.47
2018-03-06T12:24:44.161Z,32.57
2018-03-06T12:27:12.077Z,36.13
2018-03-06T12:29:39.980Z,33.47
2018-03-06T12:32:07.904Z,33.63
2018-03-06T12:34:35.805Z,34.10
2018-03-06T12:37:03.745Z,31.90
2018-03-06T12:39:31.656Z,33.87
2018-03-06T12:41:59.572Z,32.97
2018-03-06T12:44:27.472Z,33.20
2018-03-06T12:46:55.389Z,32.93
2018-03-06T12:49:23.302Z,33.47
2018-03-06T12:51:51.200Z,31.43
2018-03-06T12:54:19.157Z,32.33
2018-03-06T12:56:47.089Z,35.40
2018-03-06T12:59:14.984Z,32.60
2018-03-06T13:01:42.912Z,33.10
2018-03-06T13:04:10.828Z,35.03
2018-03-06T13:06:38.725Z,34.70
2018-03-06T13:09:06.620Z,33.00
2018-03-06T13:11:34.522Z,33.63
2018-03-06T13:14:02.444Z,30.70
2018-03-06T13:16:30.358Z,32.60
2018-03-06T13:18:58.266Z,32.30
2018-03-06T13:21:26.195Z,31.63
2018-03-06T13:23:54.202Z,30.30
2018-03-06T13:26:22.076Z,32.50
2018-03-06T13:28:49.984Z,30.87
2018-03-06T13:31:17.892Z,31.50
2018-03-06T13:33:45.797Z,31.00
2018-03-06T13:36:13.713Z,32.70
2018-03-06T13:38:42.302Z,32.67
2018-03-06T13:41:10.200Z,29.97
2018-03-06T13:43:38.121Z,31.17
2018-03-06T13:46:06.029Z,31.80
2018-03-06T13:48:33.933Z,31.80
2018-03-06T13:51:01.862Z,30.97
2018-03-06T13:53:29.772Z,30.03
2018-03-06T13:55:57.709Z,31.77
2018-03-06T13:58:25.608Z,30.93
2018-03-06T14:00:53.525Z,32.03
2018-03-06T14:03:21.432Z,28.70
2018-03-06T14:05:49.349Z,29.07
2018-03-06T14:08:17.255Z,30.57
2018-03-06T14:10:45.165Z,31.67
2018-03-06T14:13:13.065Z,31.77
2018-03-06T14:15:40.982Z,30.00
2018-03-06T14:18:08.882Z,31.50
2018-03-06T14:20:36.788Z,31.03
2018-03-06T14:23:04.697Z,29.63
2018-03-06T14:25:33.096Z,30.63
2018-03-06T14:30:24.678Z,29.37
2018-03-06T14:32:52.639Z,29.47
2018-03-06T14:35:20.554Z,29.00
2018-03-06T14:37:48.485Z,28.47
2018-03-06T14:43:09.218Z,30.80
2018-03-06T14:45:37.144Z,29.60
2018-03-06T14:48:12.168Z,27.97
2018-03-06T14:50:40.066Z,30.00
2018-03-06T14:53:07.981Z,30.00
2018-03-06T14:55:35.882Z,28.43
2018-03-06T14:58:03.786Z,30.83
2018-03-06T15:00:31.705Z,28.97
2018-03-06T15:02:59.645Z,29.93
2018-03-06T15:05:27.554Z,29.00
2018-03-06T15:07:55.514Z,28.83
2018-03-06T15:10:23.424Z,25.90
2018-03-06T15:12:51.329Z,30.47
2018-03-06T15:15:19.240Z,29.77
2018-03-06T15:17:47.164Z,29.30
2018-03-06T15:20:15.069Z,29.87
2018-03-06T15:22:42.968Z,31.30
2018-03-06T15:25:10.905Z,27.63
2018-03-06T15:27:38.885Z,28.73
2018-03-06T15:30:06.812Z,29.27
2018-03-06T15:32:34.720Z,29.50
2018-03-06T15:35:02.631Z,29.60
2018-03-06T15:37:30.545Z,28.50
2018-03-06T15:39:58.469Z,28.70
2018-03-06T15:42:26.381Z,28.17
2018-03-06T15:44:54.285Z,27.47
2018-03-06T15:47:22.206Z,28.60
2018-03-06T15:49:50.102Z,29.03
2018-03-06T15:52:18.161Z,26.47
2018-03-06T15:54:46.077Z,29.60
2018-03-06T15:57:13.993Z,31.50
2018-03-06T15:59:41.917Z,28.77
2018-03-06T16:02:09.850Z,27.70
2018-03-06T16:04:37.762Z,27.60
2018-03-06T16:07:05.673Z,26.37
2018-03-06T16:09:33.599Z,27.70
2018-03-06T16:12:01.505Z,27.93
2018-03-06T16:14:29.413Z,26.10
2018-03-06T16:16:57.329Z,27.37
2018-03-06T16:19:25.228Z,27.40
2018-03-06T16:21:53.558Z,27.40
2018-03-06T16:24:21.460Z,26.67
2018-03-06T16:26:49.358Z,26.40
2018-03-06T16:29:17.273Z,28.27
2018-03-06T16:31:45.177Z,27.27
2018-03-06T16:34:13.089Z,26.63
2018-03-06T16:36:41.000Z,27.93
2018-03-06T16:39:08.899Z,27.80
2018-03-06T16:41:36.800Z,26.67
2018-03-06T16:44:04.700Z,27.60
2018-03-06T16:46:32.605Z,28.93
2018-03-06T16:49:00.525Z,28.40
2018-03-06T16:51:28.508Z,27.37
2018-03-06T16:53:56.430Z,27.37
2018-03-06T16:56:31.277Z,29.43
2018-03-06T16:58:59.177Z,30.00
2018-03-06T17:01:27.077Z,29.60
2018-03-06T17:03:54.999Z,29.37
2018-03-06T17:06:22.900Z,30.20
2018-03-06T17:08:50.836Z,30.93
2018-03-06T17:11:18.754Z,28.43
2018-03-06T17:13:46.657Z,28.30
2018-03-06T17:16:14.555Z,29.80
2018-03-06T17:18:42.459Z,30.70
2018-03-06T17:21:10.657Z,32.03
2018-03-06T17:23:38.565Z,30.17
2018-03-06T17:26:06.465Z,29.37
2018-03-06T17:28:34.390Z,29.57
2018-03-06T17:31:02.309Z,31.43
2018-03-06T17:33:30.218Z,31.47
2018-03-06T17:35:58.121Z,31.20
2018-03-06T17:38:26.053Z,31.70
2018-03-06T17:40:53.962Z,35.33
2018-03-06T17:43:21.873Z,29.50
2018-03-06T17:45:49.781Z,33.90
2018-03-06T17:48:24.533Z,31.83
2018-03-06T17:50:52.857Z,31.00
2018-03-06T17:53:20.761Z,33.77
2018-03-06T17:55:48.669Z,33.47
2018-03-06T17:58:16.584Z,32.17
2018-03-06T18:00:44.557Z,34.10
2018-03-06T18:03:12.465Z,31.07
2018-03-06T18:05:40.385Z,30.73
2018-03-06T18:08:08.532Z,32.60
2018-03-06T18:10:36.436Z,33.33
2018-03-06T18:13:04.344Z,31.10
2018-03-06T18:15:32.273Z,31.10
2018-03-06T18:18:00.180Z,31.03
2018-03-06T18:20:28.114Z,33.37
2018-03-06T18:22:56.055Z,32.40
2018-03-06T18:25:23.971Z,32.47
2018-03-06T18:27:52.298Z,37.10
2018-03-06T18:30:20.197Z,35.60
2018-03-06T18:32:48.100Z,34.30
2018-03-06T18:35:16.008Z,33.43
2018-03-06T18:37:43.919Z,34.37
2018-03-06T18:40:11.831Z,33.33
2018-03-06T18:42:39.761Z,33.93
2018-03-06T18:45:07.668Z,32.17
2018-03-06T18:47:35.577Z,32.60
2018-03-06T18:50:03.496Z,32.93
2018-03-06T18:52:31.657Z,33.17
2018-03-06T18:54:59.574Z,33.60
2018-03-06T18:57:27.478Z,33.27
2018-03-06T19:03:23.457Z,32.80
2018-03-06T19:05:59.522Z,32.00
2018-03-06T19:08:27.449Z,35.77
2018-03-06T19:10:55.385Z,32.63
2018-03-06T19:13:23.296Z,32.70
2018-03-06T19:15:51.226Z,33.10
2018-03-06T19:18:19.157Z,31.77
2018-03-06T19:20:47.076Z,31.17
2018-03-06T19:23:15.002Z,30.67
2018-03-06T19:25:42.917Z,30.47
2018-03-06T19:28:10.836Z,32.80
2018-03-06T19:30:38.897Z,32.07
2018-03-06T19:33:06.673Z,32.40
2018-03-06T19:35:34.581Z,34.23
2018-03-06T19:38:02.523Z,32.60
2018-03-06T19:40:30.440Z,31.07
2018-03-06T19:42:58.359Z,32.60
2018-03-06T19:45:26.272Z,31.93
2018-03-06T19:47:54.204Z,34.77
2018-03-06T19:50:22.401Z,30.90
2018-03-06T19:52:50.334Z,37.53
2018-03-06T19:55:18.241Z,36.63
2018-03-06T19:57:46.161Z,33.47
2018-03-06T20:00:14.087Z,34.20
2018-03-06T20:02:42.014Z,33.83
2018-03-06T20:05:09.948Z,34.23
2018-03-06T20:07:37.870Z,33.00
2018-03-06T20:10:06.637Z,31.70
2018-03-06T20:12:34.581Z,32.20
2018-03-06T20:15:08.766Z,33.67
2018-03-06T20:17:40.615Z,32.40
2018-03-06T20:20:08.594Z,32.00
2018-03-06T20:22:37.124Z,34.00
2018-03-06T20:25:11.276Z,31.40
2018-03-06T20:27:39.177Z,38.03
2018-03-06T20:30:07.113Z,33.13
2018-03-06T20:35:45.344Z,33.57
2018-03-06T20:38:23.454Z,32.90
2018-03-06T20:40:51.423Z,35.77
2018-03-06T20:43:19.360Z,33.80
2018-03-06T20:45:53.422Z,35.33
2018-03-06T20:48:21.341Z,35.87
2018-03-06T20:50:49.259Z,34.13
2018-03-06T20:53:23.205Z,34.00
2018-03-06T20:55:51.145Z,34.03
2018-03-06T20:58:19.081Z,33.33
2018-03-06T21:00:47.314Z,37.20
2018-03-06T21:03:15.228Z,34.70
2018-03-06T21:05:43.149Z,32.60
2018-03-06T21:08:11.064Z,33.73
2018-03-06T21:10:38.984Z,34.90
2018-03-06T21:13:06.896Z,35.00
2018-03-06T21:15:34.811Z,33.57
2018-03-06T21:18:02.750Z,37.27
2018-03-06T21:20:30.660Z,34.80
2018-03-06T21:22:58.637Z,33.27
2018-03-06T21:25:26.556Z,34.00
2018-03-06T21:27:54.477Z,32.87
2018-03-06T21:30:22.388Z,34.60
2018-03-06T21:32:50.290Z,35.30
2018-03-06T21:35:18.205Z,37.33
2018-03-06T21:37:46.108Z,36.50
2018-03-06T21:40:14.016Z,34.17
2018-03-06T21:42:41.929Z,35.27
2018-03-06T21:45:09.832Z,35.60
2018-03-06T21:47:37.741Z,34.70
2018-03-06T21:50:05.653Z,35.50
2018-03-06T21:52:33.591Z,35.23
2018-03-06T21:55:01.489Z,36.37
2018-03-06T21:57:29.657Z,37.30
2018-03-06T21:59:57.564Z,36.07
2018-03-06T22:02:25.460Z,37.20
2018-03-06T22:04:53.360Z,37.93
2018-03-06T22:07:21.272Z,38.27
2018-03-06T22:09:49.188Z,36.50
2018-03-06T22:12:17.104Z,36.87
2018-03-06T22:14:45.015Z,37.60
2018-03-06T22:17:12.921Z,36.53
2018-03-06T22:19:40.837Z,38.97
2018-03-06T22:22:08.741Z,39.37
2018-03-06T22:24:36.670Z,40.33
2018-03-06T22:27:04.582Z,38.90
2018-03-06T22:29:32.537Z,40.50
2018-03-06T22:32:00.469Z,38.07
2018-03-06T22:34:28.368Z,39.80
2018-03-06T22:36:56.286Z,40.40
2018-03-06T22:39:24.225Z,39.30
2018-03-06T22:41:52.133Z,40.63
2018-03-06T22:44:20.041Z,39.93
2018-03-06T22:46:47.945Z,40.77
2018-03-06T22:49:15.871Z,38.27
2018-03-06T22:51:44.056Z,39.20
2018-03-06T22:54:11.985Z,42.83
2018-03-06T22:56:39.890Z,41.27
2018-03-06T22:59:07.797Z,39.10
2018-03-06T23:01:35.717Z,41.42
2018-03-06T23:04:03.633Z,45.00
2018-03-06T23:06:31.545Z,40.13
2018-03-06T23:08:59.463Z,40.97
2018-03-06T23:11:27.372Z,40.38
2018-03-06T23:13:55.264Z,42.07
2018-03-06T23:16:23.144Z,41.57
2018-03-06T23:18:51.037Z,42.70
2018-03-06T23:21:18.949Z,37.80
2018-03-06T23:23:46.848Z,39.43
2018-03-06T23:26:14.761Z,40.43
2018-03-06T23:28:42.677Z,38.17
2018-03-06T23:31:10.573Z,40.23
2018-03-06T23:33:38.464Z,42.00
2018-03-06T23:36:06.382Z,44.15
2018-03-06T23:38:34.284Z,41.07
2018-03-06T23:41:02.183Z,41.23
2018-03-06T23:43:30.079Z,44.10
2018-03-06T23:45:57.983Z,42.08
2018-03-06T23:48:25.900Z,46.30
2018-03-06T23:50:53.810Z,43.75
2018-03-06T23:53:21.737Z,42.95
2018-03-06T23:55:49.640Z,46.15
2018-03-06T23:58:17.543Z,43.70
